createdAt,value
2023-01-17T00:02:25.037Z,28.00
2023-01-17T00:04:53.407Z,28.00
2023-01-17T00:07:22.879Z,27.80
2023-01-17T00:09:51.112Z,27.60
2023-01-17T00:12:20.712Z,27.50
2023-01-17T00:14:49.365Z,27.50
2023-01-17T00:17:17.539Z,27.50
2023-01-17T00:19:45.811Z,27.50
2023-01-17T00:22:34.141Z,27.80
2023-01-17T00:25:02.500Z,27.80
2023-01-17T00:27:31.804Z,27.70
2023-01-17T00:29:59.955Z,27.50
2023-01-17T00:32:28.896Z,27.30
2023-01-17T00:34:57.432Z,27.10
2023-01-17T00:37:25.522Z,26.90
2023-01-17T00:39:54.223Z,26.80
2023-01-17T00:42:22.471Z,27.00
2023-01-17T00:44:50.735Z,27.20
2023-01-17T00:47:20.136Z,27.30
2023-01-17T00:49:48.440Z,27.30
2023-01-17T00:52:16.527Z,27.10
2023-01-17T00:54:44.863Z,26.90
2023-01-17T00:57:14.268Z,26.80
2023-01-17T00:59:42.597Z,26.70
2023-01-17T01:02:11.604Z,26.60
2023-01-17T01:04:39.877Z,26.80
2023-01-17T01:07:08.038Z,26.90
2023-01-17T01:09:36.224Z,27.00
2023-01-17T01:12:04.615Z,27.10
2023-01-17T01:14:32.852Z,26.90
2023-01-17T01:17:01.060Z,26.60
2023-01-17T01:19:29.519Z,26.50
2023-01-17T01:21:57.684Z,26.50
2023-01-17T01:24:26.124Z,26.40
2023-01-17T01:26:54.160Z,26.50
2023-01-17T01:29:22.464Z,26.70
2023-01-17T01:31:50.713Z,26.80
2023-01-17T01:34:19.400Z,26.90
2023-01-17T01:36:47.636Z,26.80
2023-01-17T01:39:15.975Z,26.50
2023-01-17T01:41:44.008Z,26.40
2023-01-17T01:44:46.613Z,26.30
2023-01-17T01:47:17.337Z,26.30
2023-01-17T01:49:45.698Z,26.20
2023-01-17T01:52:15.288Z,26.40
2023-01-17T01:55:08.838Z,26.50
2023-01-17T01:57:43.003Z,26.60
2023-01-17T02:00:27.718Z,26.60
2023-01-17T02:02:58.637Z,26.60
2023-01-17T02:05:28.825Z,26.50
2023-01-17T02:07:57.168Z,26.50
2023-01-17T02:10:25.277Z,26.50
2023-01-17T02:12:55.633Z,26.50
2023-01-17T02:15:30.926Z,26.50
2023-01-17T02:18:03.355Z,26.60
2023-01-17T02:20:49.844Z,26.50
2023-01-17T02:23:39.706Z,26.40
2023-01-17T02:26:38.868Z,26.40
2023-01-17T02:29:19.311Z,26.30
2023-01-17T02:32:05.237Z,26.30
2023-01-17T02:34:59.456Z,26.50
2023-01-17T02:37:42.191Z,26.60
2023-01-17T02:40:40.732Z,26.60
2023-01-17T02:43:14.640Z,26.40
2023-01-17T02:45:43.513Z,26.20
2023-01-17T02:48:14.942Z,26.20
2023-01-17T02:51:12.369Z,26.30
2023-01-17T02:53:58.605Z,26.40
2023-01-17T02:56:59.372Z,26.70
2023-01-17T02:59:37.827Z,26.80
2023-01-17T03:02:22.560Z,26.80
2023-01-17T03:04:59.218Z,26.60
2023-01-17T03:07:29.773Z,26.50
2023-01-17T03:10:02.090Z,26.40
2023-01-17T03:12:32.673Z,26.40
2023-01-17T03:15:00.872Z,26.40
2023-01-17T03:17:33.899Z,26.50
2023-01-17T03:20:02.296Z,26.70
2023-01-17T03:22:30.369Z,26.90
2023-01-17T03:24:58.644Z,26.70
2023-01-17T03:27:26.979Z,26.60
2023-01-17T03:29:55.152Z,26.50
2023-01-17T03:32:23.546Z,26.40
2023-01-17T03:34:51.725Z,26.30
2023-01-17T03:37:20.076Z,26.40
2023-01-17T03:39:48.320Z,26.40
2023-01-17T03:42:16.583Z,26.60
2023-01-17T03:44:44.753Z,26.70
2023-01-17T03:47:13.153Z,26.50
2023-01-17T03:49:41.694Z,26.40
2023-01-17T03:52:09.921Z,26.30
2023-01-17T03:54:38.254Z,26.30
2023-01-17T03:57:06.518Z,26.30
2023-01-17T03:59:34.987Z,26.30
2023-01-17T04:02:03.413Z,26.50
2023-01-17T04:04:31.760Z,26.70
2023-01-17T04:07:00.023Z,26.80
2023-01-17T04:09:28.231Z,26.50
2023-01-17T04:11:56.665Z,26.40
2023-01-17T04:14:24.811Z,26.30
2023-01-17T04:16:52.999Z,26.20
2023-01-17T04:19:21.424Z,26.20
2023-01-17T04:21:49.557Z,26.20
2023-01-17T04:24:18.126Z,26.40
2023-01-17T04:26:46.509Z,26.50
2023-01-17T04:29:14.671Z,26.40
2023-01-17T04:31:42.807Z,26.20
2023-01-17T04:34:11.198Z,26.10
2023-01-17T04:36:39.342Z,26.10
2023-01-17T04:39:08.080Z,26.10
2023-01-17T04:41:36.805Z,26.00
2023-01-17T04:44:05.088Z,26.10
2023-01-17T04:46:33.411Z,26.30
2023-01-17T04:49:01.646Z,26.40
2023-01-17T04:51:29.790Z,26.30
2023-01-17T04:53:58.092Z,26.10
2023-01-17T04:56:26.320Z,26.00
2023-01-17T04:58:56.759Z,26.00
2023-01-17T05:01:25.386Z,25.90
2023-01-17T05:03:53.706Z,25.80
2023-01-17T05:06:21.989Z,25.80
2023-01-17T05:08:50.201Z,26.00
2023-01-17T05:11:18.372Z,26.10
2023-01-17T05:13:51.688Z,26.10
2023-01-17T05:16:20.180Z,25.80
2023-01-17T05:18:51.163Z,25.60
2023-01-17T05:21:20.176Z,25.60
2023-01-17T05:23:48.584Z,25.60
2023-01-17T05:26:16.941Z,25.70
2023-01-17T05:28:45.240Z,25.70
2023-01-17T05:31:13.652Z,26.00
2023-01-17T05:33:41.881Z,26.10
2023-01-17T05:36:10.555Z,26.20
2023-01-17T05:38:38.639Z,26.10
2023-01-17T05:41:06.976Z,26.00
2023-01-17T05:43:35.184Z,25.90
2023-01-17T05:46:03.382Z,25.80
2023-01-17T05:48:31.806Z,25.70
2023-01-17T05:50:59.897Z,25.80
2023-01-17T05:53:28.460Z,25.70
2023-01-17T05:55:56.551Z,25.80
2023-01-17T05:58:24.834Z,25.70
2023-01-17T06:00:55.771Z,25.80
2023-01-17T06:03:24.091Z,25.80
2023-01-17T06:05:53.681Z,25.70
2023-01-17T06:08:22.013Z,25.70
2023-01-17T06:10:50.622Z,25.80
2023-01-17T06:13:18.861Z,26.10
2023-01-17T06:15:47.173Z,26.10
2023-01-17T06:18:17.597Z,26.00
2023-01-17T06:20:46.074Z,25.90
2023-01-17T06:23:15.655Z,25.80
2023-01-17T06:25:48.151Z,25.80
2023-01-17T06:28:19.218Z,25.80
2023-01-17T06:30:47.976Z,25.80
2023-01-17T06:33:16.671Z,25.90
2023-01-17T06:35:49.741Z,26.10
2023-01-17T06:38:18.885Z,26.10
2023-01-17T06:40:47.080Z,25.90
2023-01-17T06:43:15.678Z,25.80
2023-01-17T06:45:43.892Z,25.70
2023-01-17T06:48:12.217Z,25.60
2023-01-17T06:50:40.492Z,25.60
2023-01-17T06:53:08.634Z,25.60
2023-01-17T06:55:39.193Z,25.80
2023-01-17T06:58:09.145Z,25.90
2023-01-17T07:00:40.375Z,25.90
2023-01-17T07:03:19.123Z,25.70
2023-01-17T07:05:47.661Z,25.70
2023-01-17T07:08:16.255Z,25.60
2023-01-17T07:10:46.009Z,25.60
2023-01-17T07:13:14.861Z,25.70
2023-01-17T07:15:43.271Z,25.90
2023-01-17T07:18:11.466Z,26.10
2023-01-17T07:20:39.582Z,26.10
2023-01-17T07:23:07.893Z,25.90
2023-01-17T07:25:36.249Z,25.80
2023-01-17T07:28:04.764Z,25.70
2023-01-17T07:30:32.893Z,25.80
2023-01-17T07:33:01.395Z,26.10
2023-01-17T07:35:29.919Z,26.20
2023-01-17T07:37:58.150Z,26.60
2023-01-17T07:40:26.566Z,26.60
2023-01-17T07:43:00.914Z,26.70
2023-01-17T07:45:29.320Z,26.80
2023-01-17T07:48:00.239Z,26.90
2023-01-17T07:50:28.585Z,27.10
2023-01-17T07:52:56.797Z,27.20
2023-01-17T07:55:25.009Z,27.30
2023-01-17T07:57:53.403Z,27.70
2023-01-17T08:00:22.189Z,27.80
2023-01-17T08:02:50.824Z,28.10
2023-01-17T08:05:19.079Z,28.00
2023-01-17T08:07:47.448Z,28.00
2023-01-17T08:10:16.199Z,28.10
2023-01-17T08:12:49.670Z,28.00
2023-01-17T08:15:18.774Z,27.90
2023-01-17T08:17:51.053Z,27.90
2023-01-17T08:20:19.737Z,28.90
2023-01-17T08:22:48.129Z,29.90
2023-01-17T08:25:16.447Z,31.80
2023-01-17T08:27:44.635Z,32.90
2023-01-17T08:30:12.981Z,33.30
2023-01-17T08:32:41.439Z,33.70
2023-01-17T08:35:10.256Z,34.10
2023-01-17T08:37:38.580Z,35.00
2023-01-17T08:40:07.769Z,36.40
2023-01-17T08:42:36.774Z,37.00
2023-01-17T08:45:09.896Z,37.30
2023-01-17T08:47:38.549Z,37.80
2023-01-17T08:50:07.614Z,38.10
2023-01-17T08:52:36.325Z,38.50
2023-01-17T08:55:05.903Z,38.50
2023-01-17T08:57:34.293Z,38.40
2023-01-17T09:00:02.563Z,38.60
2023-01-17T09:02:30.751Z,38.60
2023-01-17T09:04:59.052Z,38.80
2023-01-17T09:07:27.638Z,39.00
2023-01-17T09:09:55.906Z,39.10
2023-01-17T09:12:24.211Z,39.30
2023-01-17T09:14:52.439Z,39.70
2023-01-17T09:17:20.662Z,38.80
2023-01-17T09:19:48.932Z,36.10
2023-01-17T09:22:17.158Z,34.80
2023-01-17T09:24:45.395Z,33.80
2023-01-17T09:27:13.626Z,33.60
2023-01-17T09:29:41.821Z,33.50
2023-01-17T09:32:10.309Z,33.40
2023-01-17T09:34:38.500Z,33.60
2023-01-17T09:37:06.728Z,33.70
2023-01-17T09:39:34.964Z,33.90
2023-01-17T09:42:27.232Z,33.50
2023-01-17T09:44:56.488Z,33.30
2023-01-17T09:47:47.992Z,33.20
2023-01-17T09:50:31.141Z,33.00
2023-01-17T09:53:06.072Z,32.90
2023-01-17T09:56:14.949Z,33.00
2023-01-17T09:58:47.054Z,33.30
2023-01-17T10:01:33.893Z,33.20
2023-01-17T10:04:26.800Z,33.10
2023-01-17T10:07:16.502Z,32.60
2023-01-17T10:09:58.171Z,32.60
2023-01-17T10:12:51.047Z,32.70
2023-01-17T10:15:44.733Z,32.50
2023-01-17T10:18:40.763Z,32.50
2023-01-17T10:21:20.186Z,32.70
2023-01-17T10:24:05.981Z,32.90
2023-01-17T10:26:35.711Z,32.80
2023-01-17T10:29:10.128Z,32.80
2023-01-17T10:31:51.692Z,32.60
2023-01-17T10:34:26.137Z,32.00
2023-01-17T10:37:01.360Z,32.20
2023-01-17T10:39:31.754Z,32.40
2023-01-17T10:42:52.165Z,32.80
2023-01-17T10:45:26.557Z,32.80
2023-01-17T10:48:20.197Z,32.80
2023-01-17T10:50:57.146Z,32.70
2023-01-17T10:53:37.798Z,32.60
2023-01-17T10:56:07.554Z,32.50
2023-01-17T10:58:35.681Z,32.40
2023-01-17T11:01:16.180Z,32.20
2023-01-17T11:03:48.903Z,32.30
2023-01-17T11:06:26.110Z,32.60
2023-01-17T11:09:00.286Z,32.70
2023-01-17T11:11:34.816Z,32.80
2023-01-17T11:14:08.359Z,32.60
2023-01-17T11:16:36.950Z,32.20
2023-01-17T11:19:31.887Z,32.40
2023-01-17T11:22:04.022Z,32.40
2023-01-17T11:24:42.304Z,32.30
2023-01-17T11:27:24.656Z,32.80
2023-01-17T11:30:19.218Z,32.80
2023-01-17T11:33:04.998Z,32.10
2023-01-17T11:35:35.953Z,32.40
2023-01-17T11:38:07.011Z,32.20
2023-01-17T11:40:53.555Z,32.30
2023-01-17T11:43:26.664Z,32.20
2023-01-17T11:46:07.479Z,32.30
2023-01-17T11:48:40.044Z,32.20
2023-01-17T11:51:39.693Z,32.70
2023-01-17T11:54:14.145Z,32.80
2023-01-17T11:56:43.512Z,32.90
2023-01-17T11:59:25.368Z,33.00
2023-01-17T12:02:01.862Z,32.90
2023-01-17T12:04:47.641Z,32.80
2023-01-17T12:07:18.755Z,32.60
2023-01-17T12:10:02.696Z,32.70
2023-01-17T12:13:04.903Z,32.70
2023-01-17T12:15:53.410Z,32.70
2023-01-17T12:18:47.737Z,32.70
2023-01-17T12:21:21.771Z,33.10
2023-01-17T12:24:02.117Z,33.30
2023-01-17T12:26:40.887Z,33.40
2023-01-17T12:29:28.682Z,33.50
2023-01-17T12:32:15.862Z,33.10
2023-01-17T12:34:44.187Z,32.90
2023-01-17T12:37:22.761Z,33.10
2023-01-17T12:40:08.117Z,32.80
2023-01-17T12:42:43.084Z,33.30
2023-01-17T12:45:19.204Z,33.00
2023-01-17T12:47:52.635Z,33.10
2023-01-17T12:50:34.840Z,33.30
2023-01-17T12:53:22.428Z,32.90
2023-01-17T12:56:01.248Z,32.90
2023-01-17T12:58:41.911Z,33.00
2023-01-17T13:01:22.597Z,32.90
2023-01-17T13:04:17.182Z,32.90
2023-01-17T13:07:10.603Z,32.70
2023-01-17T13:10:04.894Z,32.60
2023-01-17T13:12:35.164Z,32.70
2023-01-17T13:15:03.477Z,32.90
2023-01-17T13:17:47.635Z,33.00
2023-01-17T13:20:23.575Z,33.10
2023-01-17T13:22:52.741Z,33.30
2023-01-17T13:25:47.014Z,33.30
2023-01-17T13:28:42.993Z,33.60
2023-01-17T13:31:48.557Z,33.40
2023-01-17T13:34:49.338Z,33.20
2023-01-17T13:37:37.227Z,32.80
2023-01-17T13:40:27.959Z,32.80
2023-01-17T13:42:59.455Z,32.50
2023-01-17T13:45:29.418Z,32.70
2023-01-17T13:48:13.140Z,32.70
2023-01-17T13:50:41.479Z,32.10
2023-01-17T13:53:34.531Z,32.30
2023-01-17T13:56:23.561Z,32.80
2023-01-17T13:58:51.873Z,33.00
2023-01-17T14:01:23.108Z,33.30
2023-01-17T14:03:51.527Z,33.30
2023-01-17T14:06:39.393Z,33.00
2023-01-17T14:09:13.516Z,32.70
2023-01-17T14:12:09.817Z,32.50
2023-01-17T14:14:41.097Z,32.20
2023-01-17T14:17:46.713Z,32.10
2023-01-17T14:20:14.899Z,32.70
2023-01-17T14:22:52.849Z,32.50
2023-01-17T14:25:26.020Z,32.30
2023-01-17T14:27:58.971Z,32.40
2023-01-17T14:30:28.592Z,32.60
2023-01-17T14:32:59.845Z,32.60
2023-01-17T14:35:33.694Z,32.60
2023-01-17T14:38:02.681Z,32.90
2023-01-17T14:40:33.895Z,32.80
2023-01-17T14:43:06.849Z,32.20
2023-01-17T14:45:36.539Z,32.10
2023-01-17T14:48:26.705Z,32.20
2023-01-17T14:50:57.002Z,32.00
2023-01-17T14:53:29.664Z,31.60
2023-01-17T14:56:02.982Z,31.90
2023-01-17T14:58:33.611Z,32.00
2023-01-17T15:01:18.205Z,32.40
2023-01-17T15:03:54.788Z,32.50
2023-01-17T15:06:42.146Z,32.30
2023-01-17T15:09:23.099Z,32.40
2023-01-17T15:11:52.463Z,32.20
2023-01-17T15:14:42.297Z,32.20
2023-01-17T15:17:17.615Z,32.20
2023-01-17T15:19:50.897Z,32.20
2023-01-17T15:22:20.375Z,31.90
2023-01-17T15:24:49.668Z,32.00
2023-01-17T15:27:18.312Z,32.30
2023-01-17T15:29:48.172Z,32.40
2023-01-17T15:32:25.314Z,32.30
2023-01-17T15:34:53.857Z,32.10
2023-01-17T15:37:39.197Z,31.80
2023-01-17T15:40:20.143Z,31.90
2023-01-17T15:43:00.303Z,31.80
2023-01-17T15:45:30.865Z,31.80
2023-01-17T15:48:20.327Z,31.90
2023-01-17T15:50:48.644Z,32.00
2023-01-17T15:53:32.066Z,31.90
2023-01-17T15:56:01.320Z,31.40
2023-01-17T15:58:30.963Z,31.50
2023-01-17T16:00:59.819Z,31.90
2023-01-17T16:03:30.619Z,31.90
2023-01-17T16:06:00.994Z,31.80
2023-01-17T16:08:39.059Z,32.00
2023-01-17T16:11:08.837Z,31.60
2023-01-17T16:13:39.183Z,31.50
2023-01-17T16:16:33.852Z,31.50
2023-01-17T16:19:03.399Z,31.30
2023-01-17T16:21:32.501Z,31.20
2023-01-17T16:24:02.069Z,31.20
2023-01-17T16:26:30.576Z,31.40
2023-01-17T16:28:58.995Z,31.40
2023-01-17T16:31:27.413Z,31.10
2023-01-17T16:33:55.704Z,31.10
2023-01-17T16:36:24.002Z,31.20
2023-01-17T16:38:52.814Z,31.30
2023-01-17T16:41:21.459Z,31.10
2023-01-17T16:43:59.610Z,31.10
2023-01-17T16:46:29.001Z,31.20
2023-01-17T16:48:59.093Z,31.60
2023-01-17T16:51:28.248Z,31.20
2023-01-17T16:53:56.641Z,31.10
2023-01-17T16:56:25.097Z,31.10
2023-01-17T16:58:53.370Z,31.30
2023-01-17T17:01:21.948Z,30.90
2023-01-17T17:03:50.684Z,30.70
2023-01-17T17:06:19.552Z,30.40
2023-01-17T17:08:47.978Z,30.40
2023-01-17T17:11:21.530Z,30.30
2023-01-17T17:13:51.552Z,30.50
2023-01-17T17:16:28.978Z,30.90
2023-01-17T17:19:02.806Z,30.90
2023-01-17T17:21:31.933Z,30.90
2023-01-17T17:24:01.940Z,30.80
2023-01-17T17:26:37.872Z,31.00
2023-01-17T17:29:07.978Z,30.90
2023-01-17T17:31:37.096Z,30.80
2023-01-17T17:34:06.617Z,30.60
2023-01-17T17:36:36.057Z,30.40
2023-01-17T17:39:06.461Z,30.30
2023-01-17T17:41:36.630Z,30.30
2023-01-17T17:44:05.393Z,30.40
2023-01-17T17:46:33.940Z,30.30
2023-01-17T17:49:02.748Z,30.20
2023-01-17T17:51:36.469Z,30.30
2023-01-17T17:54:07.823Z,30.30
2023-01-17T17:56:37.696Z,30.20
2023-01-17T17:59:08.824Z,29.90
2023-01-17T18:01:37.347Z,29.60
2023-01-17T18:04:06.180Z,29.50
2023-01-17T18:06:35.163Z,29.50
2023-01-17T18:09:04.456Z,29.50
2023-01-17T18:11:33.202Z,29.50
2023-01-17T18:14:03.326Z,29.80
2023-01-17T18:16:36.970Z,29.80
2023-01-17T18:19:05.930Z,30.00
2023-01-17T18:21:38.841Z,29.70
2023-01-17T18:28:55.936Z,29.10
2023-01-17T18:31:25.749Z,28.80
2023-01-17T18:34:01.983Z,29.10
2023-01-17T18:36:30.478Z,29.60
2023-01-17T18:38:58.809Z,29.60
2023-01-17T18:41:31.248Z,29.70
2023-01-17T18:43:59.580Z,29.60
2023-01-17T18:46:28.002Z,29.50
2023-01-17T18:49:03.030Z,29.50
2023-01-17T18:51:32.881Z,29.10
2023-01-17T18:54:02.644Z,28.90
2023-01-17T18:56:32.666Z,29.10
2023-01-17T18:59:01.459Z,29.50
2023-01-17T19:01:34.320Z,29.60
2023-01-17T19:04:05.717Z,29.40
2023-01-17T19:06:37.099Z,29.50
2023-01-17T19:09:07.516Z,29.40
2023-01-17T19:11:36.514Z,29.60
2023-01-17T19:14:05.700Z,29.70
2023-01-17T19:16:37.017Z,29.50
2023-01-17T19:19:08.373Z,29.30
2023-01-17T19:21:36.787Z,29.50
2023-01-17T19:24:05.387Z,29.50
2023-01-17T19:26:33.688Z,29.30
2023-01-17T19:29:02.296Z,29.00
2023-01-17T19:31:32.547Z,28.80
2023-01-17T19:34:01.025Z,28.70
2023-01-17T19:36:33.287Z,28.70
2023-01-17T19:39:06.368Z,28.80
2023-01-17T19:41:37.280Z,29.10
2023-01-17T19:44:07.653Z,29.30
2023-01-17T19:46:37.418Z,29.60
2023-01-17T19:49:08.227Z,29.40
2023-01-17T19:51:37.135Z,29.30
2023-01-17T19:54:05.646Z,29.30
2023-01-17T19:56:34.275Z,29.20
2023-01-17T19:59:02.655Z,29.00
2023-01-17T20:01:33.677Z,29.10
2023-01-17T20:04:03.862Z,29.20
2023-01-17T20:06:35.111Z,28.90
2023-01-17T20:09:04.538Z,28.60
2023-01-17T20:11:32.942Z,28.70
2023-01-17T20:14:01.101Z,28.60
2023-01-17T20:16:31.973Z,28.60
2023-01-17T20:19:00.488Z,28.80
2023-01-17T20:21:30.138Z,29.00
2023-01-17T20:24:00.030Z,29.10
2023-01-17T20:26:30.392Z,29.10
2023-01-17T20:28:58.781Z,29.10
2023-01-17T20:31:28.289Z,29.20
2023-01-17T20:33:57.273Z,29.20
2023-01-17T20:36:26.992Z,29.20
2023-01-17T20:38:55.681Z,29.00
2023-01-17T20:41:25.336Z,28.80
2023-01-17T20:43:55.875Z,28.60
2023-01-17T20:46:27.833Z,28.60
2023-01-17T20:48:56.985Z,28.50
2023-01-17T20:51:27.149Z,28.60
2023-01-17T20:53:58.190Z,28.90
2023-01-17T20:56:27.052Z,28.90
2023-01-17T20:58:55.637Z,28.90
2023-01-17T21:01:24.539Z,29.10
2023-01-17T21:03:53.287Z,29.00
2023-01-17T21:06:23.554Z,29.20
2023-01-17T21:08:52.918Z,29.10
2023-01-17T21:11:23.452Z,28.90
2023-01-17T21:13:52.457Z,28.70
2023-01-17T21:16:22.634Z,28.50
2023-01-17T21:18:52.044Z,28.30
2023-01-17T21:21:25.819Z,28.30
2023-01-17T21:23:56.216Z,28.40
2023-01-17T21:26:27.505Z,28.60
2023-01-17T21:28:56.666Z,28.60
2023-01-17T21:31:30.736Z,28.70
2023-01-17T21:34:01.342Z,28.70
2023-01-17T21:36:39.952Z,28.70
2023-01-17T21:39:14.097Z,28.70
2023-01-17T21:41:44.082Z,28.70
2023-01-17T21:44:23.637Z,28.80
2023-01-17T21:46:54.293Z,28.70
2023-01-17T21:49:23.736Z,28.70
2023-01-17T21:51:51.980Z,28.70
2023-01-17T21:54:21.611Z,28.40
2023-01-17T21:56:49.985Z,28.20
2023-01-17T21:59:18.236Z,28.10
2023-01-17T22:01:46.435Z,28.10
2023-01-17T22:04:14.829Z,28.00
2023-01-17T22:06:43.243Z,28.20
2023-01-17T22:09:11.410Z,28.30
2023-01-17T22:11:39.721Z,28.40
2023-01-17T22:14:07.890Z,28.40
2023-01-17T22:16:36.223Z,28.40
2023-01-17T22:19:04.580Z,28.20
2023-01-17T22:21:32.984Z,28.10
2023-01-17T22:24:01.489Z,28.00
2023-01-17T22:26:31.787Z,28.00
2023-01-17T22:29:03.143Z,28.40
2023-01-17T22:31:31.800Z,28.60
2023-01-17T22:34:02.233Z,28.60
2023-01-17T22:36:34.586Z,28.80
2023-01-17T22:39:03.113Z,28.80
2023-01-17T22:41:31.817Z,28.60
2023-01-17T22:44:01.995Z,28.30
2023-01-17T22:46:33.338Z,28.10
2023-01-17T22:49:01.614Z,28.00
2023-01-17T22:51:30.173Z,27.90
2023-01-17T22:54:00.905Z,28.00
2023-01-17T22:56:31.688Z,28.20
2023-01-17T22:59:00.982Z,28.20
2023-01-17T23:01:31.772Z,28.40
2023-01-17T23:04:02.607Z,28.50
2023-01-17T23:06:39.048Z,28.20
2023-01-17T23:09:10.911Z,28.00
2023-01-17T23:11:43.390Z,28.00
2023-01-17T23:14:20.808Z,27.90
2023-01-17T23:16:55.072Z,27.90
2023-01-17T23:19:23.814Z,28.00
2023-01-17T23:21:55.075Z,28.40
2023-01-17T23:24:23.479Z,28.40
2023-01-17T23:26:51.936Z,28.20
2023-01-17T23:29:20.220Z,28.40
2023-01-17T23:31:48.490Z,28.30
2023-01-17T23:34:16.676Z,28.20
2023-01-17T23:36:45.051Z,28.00
2023-01-17T23:39:13.322Z,27.90
2023-01-17T23:41:41.421Z,27.80
2023-01-17T23:44:09.708Z,27.80
2023-01-17T23:46:37.803Z,27.80
2023-01-17T23:49:06.003Z,28.00
2023-01-17T23:51:34.343Z,28.10
2023-01-17T23:54:02.560Z,28.20
2023-01-17T23:56:30.673Z,28.20
2023-01-17T23:58:58.941Z,28.10
